Authier, Canada
Current Conditions -  °F | °C
As of 3:00 PM on Tuesday 21 Oct 2014 (Local Time) from CYUY Reporting Station
Scattered Clouds Scattered Clouds  
Wind Chill: 34°   Ceiling: Unl
Heat Index: 41°   Visibility: 15mi
Dew Point: 27°   Wind: 12mph
Humidity: 57%   Direction: 60°ENE
Pressure: 30.23"   Gusts: 20mph
Location:  48.72°N, 78.87°W
Report Text: CYUY 211900Z 06010G17KT 350V090 15SM SCT030 05/M03 A3023 RMK SC3 SLP251
Loading
Personal Weather Stations






























Interactive Weather Map
Tropical Storm Tracking
New forecast layout! Learn more

10-Day Weather Forecast

Advertisements
Track Severe Weather on mobile